Nearby METAR Reports

 

KCOS - Colorado Springs, Colorado, USA
Distance from station: S 6mi, 9km
Updated: Thu, 19-Oct-2017 8:54pm MDT
Mostly cloudy
Mostly cloudy
 Wind from NE
Wind: NE 5 mph , 7 km/h
Temperature: 52°F , 11°C
Dew Point: 32°F , 0°C
Humidity: 47%
Barometer: 30.00 inHg , 1015.9 hPa
Clouds: Mostly cloudy
Visibility: 10 miles , 16 km
Cloud details: Mostly cloudy 25000 ft
2017/10/20 02:54 KCOS 200254Z 05004KT 10SM BKN250 11/00 A3000 RMK AO2 SLP108 T01110000 58004
KAFF - Usaf Academy/Cos, Colorado, USA
Distance from station: NW 7mi, 12km
Updated: Thu, 19-Oct-2017 8:58pm MDT
Clear
Clear
 Wind from S
Wind: S 3 mph , 6 km/h
Temperature: 52°F , 11°C
Dew Point: 25°F , -4°C
Humidity: 35%
Barometer: 30.01 inHg , 1016.3 hPa
Clouds: Clear
Visibility: 10 miles , 16 km
2017/10/20 02:58 KAFF 200258Z AUTO 18003KT 10SM CLR 11/M04 A3001 RMK AO2 SLP120 T01131036 58004
 
KFLY - Co Spngs Meadow, Colorado, USA
Distance from station: ENE 8mi, 13km
Updated: Thu, 19-Oct-2017 8:55pm MDT
Clear
Clear
 Wind from WSW
Wind: WSW 3 mph , 6 km/h
Temperature: 48°F , 9°C
Dew Point: 30°F , -1°C
Humidity: 50%
Barometer: 30.04 inHg , 1017.3 hPa
Clouds: Clear
Visibility: 10 miles , 16 km
2017/10/20 02:55 KFLY 200255Z AUTO 24003KT 10SM CLR 09/M01 A3004 RMK AO2 T00931010
KFCS - Fort Carson, Colorado, USA
Distance from station: S 17mi, 27km
Updated: Thu, 19-Oct-2017 8:58pm MDT
Clear
Clear
 Wind from W
Wind: W 5 mph , 7 km/h
Temperature: 63°F , 17°C
Dew Point: 30°F , -1°C
Humidity: 30%
Barometer: 29.96 inHg , 1014.6 hPa
Clouds: Clear
Visibility: 10 miles , 16 km
2017/10/20 02:58 KFCS 200258Z AUTO 27004KT 10SM CLR 17/M01 A2996 RMK AO2 SLP117 T01651014 56008 $
 
KMNH - Monument/Elbert, Colorado, USA
Distance from station: N 22mi, 35km
Updated: Thu, 19-Oct-2017 8:49pm MDT
Clear
Clear
 Wind from S
Wind: S 15 mph , 24 km/h
Temperature: 52°F , 11°C
Dew Point: 32°F , 0°C
Humidity: 47%
Barometer: 30.03 inHg , 1016.9 hPa
Clouds: Clear
Visibility: 10 miles , 16 km
2017/10/20 02:49 KMNH 200249Z AUTO 18013KT 10SM CLR 11/00 A3003 RMK AO2
K1V6 - Canon City, Colorado, USA
Distance from station: SSW 39mi, 62km
Updated: Thu, 19-Oct-2017 8:50pm MDT
Clear
Clear
 Wind from WNW
Wind: WNW 6 mph , 9 km/h
Temperature: 55°F , 13°C
Dew Point: 30°F , -1°C
Humidity: 38%
Barometer: 29.94 inHg , 1013.9 hPa
Clouds: Clear
Visibility: 10 miles , 16 km
2017/10/20 02:50 K1V6 200250Z AUTO 29005KT 10SM CLR 13/M01 A2994 RMK AO2
 
KPUB - Pueblo, Colorado, USA
Distance from station: SSE 44mi, 71km
Updated: Thu, 19-Oct-2017 8:53pm MDT
Clear
Clear
 Wind from NNE
Wind: NNE 9 mph , 15 km/h
Temperature: 61°F , 16°C
Dew Point: 37°F , 3°C
Humidity: 42%
Barometer: 29.88 inHg , 1011.9 hPa
Clouds: Clear
Visibility: 10 miles , 16 km
2017/10/20 02:53 KPUB 200253Z 02008KT 10SM CLR 16/03 A2988 RMK AO2 SLP088 T01560028 58008
KAPA - Denver/Arapahoe, Colorado, USA
Distance from station: N 47mi, 75km
Updated: Thu, 19-Oct-2017 8:53pm MDT
Partly cloudy
Partly cloudy
 Wind from S
Wind: S 10 mph , 17 km/h
Temperature: 57°F , 14°C
Dew Point: 27°F , -3°C
Humidity: 31%
Barometer: 29.94 inHg , 1013.9 hPa
Clouds: Partly cloudy
Visibility: 10 miles , 16 km
Cloud details: Partly cloudy 22000 ft
2017/10/20 02:53 KAPA 200253Z 19009KT 10SM SCT220 14/M03 A2994 RMK AO2 SLP098 T01441028 58001